Time;durP1;ratioP1;P1;durP2;ratioP2;P2;SDS_P1;SDS_P2;PMS_P1;PMS_P2;Temp;Humidity;BMP_temperature;BMP_pressure;BME280_temperature;BME280_humidity;BME280_pressure;Samples;Min_cycle;Max_cycle;Signal;HPM_P1;HPM_P2
2021/07/28 00:02:18;;;;;;;;;11.00;11.00;;;;;19.48;72.22;100415.13;5076638;27;45348;-60
2021/07/28 00:04:43;;;;;;;;;12.00;10.25;;;;;19.48;72.05;100414.34;5077405;28;45392;-61
2021/07/28 00:07:09;;;;;;;;;13.25;11.00;;;;;19.46;71.90;100409.19;5077047;28;54788;-60
2021/07/28 00:09:34;;;;;;;;;14.25;12.75;;;;;19.48;71.81;100412.47;5075445;28;45244;-60
2021/07/28 00:12:00;;;;;;;;;12.25;10.25;;;;;19.47;72.00;100404.69;5077105;27;46026;-60
2021/07/28 00:14:25;;;;;;;;;13.00;11.00;;;;;19.46;72.20;100408.38;5076809;28;57389;-60
2021/07/28 00:16:51;;;;;;;;;17.25;12.25;;;;;19.45;72.22;100401.41;5076786;27;52726;-59
2021/07/28 00:19:28;;;;;;;;;15.00;12.50;;;;;19.42;71.96;100397.28;5077456;27;45216;-61
2021/07/28 00:24:38;;;;;;;;;9.50;9.50;;;;;19.45;71.89;100409.41;5077295;28;45800;-60
2021/07/28 00:27:04;;;;;;;;;10.50;10.50;;;;;19.42;71.97;100406.09;5076333;28;63037;-60
2021/07/28 00:29:30;;;;;;;;;14.25;12.00;;;;;19.41;72.04;100399.13;5077094;27;45452;-60
2021/07/28 00:31:55;;;;;;;;;13.75;11.00;;;;;19.41;71.72;100398.28;5076945;28;46216;-61
2021/07/28 00:34:21;;;;;;;;;11.50;10.00;;;;;19.37;72.10;100394.38;5076340;27;60807;-60
2021/07/28 00:36:46;;;;;;;;;14.75;9.00;;;;;19.36;71.89;100404.22;5076995;27;45813;-60
2021/07/28 00:39:12;;;;;;;;;12.50;12.25;;;;;19.34;71.96;100402.81;5077054;28;45510;-60
2021/07/28 00:41:41;;;;;;;;;15.50;11.00;;;;;19.31;72.13;100401.34;5076144;28;61489;-60
2021/07/28 00:44:06;;;;;;;;;12.25;10.75;;;;;19.27;72.10;100408.91;5076751;27;45369;-60
2021/07/28 00:46:32;;;;;;;;;12.75;10.75;;;;;19.25;72.17;100397.63;5076224;27;64861;-60
2021/07/28 00:48:57;;;;;;;;;11.00;11.00;;;;;19.26;71.96;100406.44;5076169;28;57467;-60
2021/07/28 00:51:22;;;;;;;;;12.00;10.00;;;;;19.24;72.04;100403.13;5075468;28;46139;-61
2021/07/28 00:53:48;;;;;;;;;10.75;10.75;;;;;19.23;72.32;100401.50;5075919;28;66744;-60
2021/07/28 00:56:13;;;;;;;;;14.25;13.00;;;;;19.22;72.43;100397.19;5076040;27;58652;-60
2021/07/28 00:58:40;;;;;;;;;15.00;11.50;;;;;19.20;72.17;100401.88;5074872;28;57257;-60
2021/07/28 01:01:05;;;;;;;;;12.00;10.50;;;;;19.20;72.28;100410.72;5075399;28;45554;-60
2021/07/28 01:03:31;;;;;;;;;9.00;8.25;;;;;19.17;71.85;100405.78;5078477;27;45262;-60
2021/07/28 01:05:57;;;;;;;;;13.00;11.25;;;;;19.17;72.33;100404.94;5080388;28;45370;-60
2021/07/28 01:08:22;;;;;;;;;16.50;12.00;;;;;19.15;72.00;100398.97;5080297;27;45335;-60
2021/07/28 01:10:48;;;;;;;;;11.25;9.75;;;;;19.13;71.92;100397.34;5061390;28;57939;-60
2021/07/28 01:13:15;;;;;;;;;12.25;10.00;;;;;19.16;71.90;100397.97;5079599;28;58089;-60
2021/07/28 01:15:42;;;;;;;;;14.50;11.25;;;;;19.13;72.06;100396.53;5080238;27;45280;-61
2021/07/28 01:18:09;;;;;;;;;12.00;10.50;;;;;19.11;71.37;100396.72;5079447;27;45606;-60
2021/07/28 01:20:36;;;;;;;;;12.25;11.25;;;;;19.11;71.58;100401.22;5079634;27;46156;-60
2021/07/28 01:23:07;;;;;;;;;11.75;9.50;;;;;19.08;71.68;100396.28;5080020;28;45367;-61
2021/07/28 01:25:33;;;;;;;;;8.75;8.75;;;;;19.04;71.76;100411.84;5080077;28;45445;-60
2021/07/28 01:28:00;;;;;;;;;12.00;9.00;;;;;19.00;71.57;100412.41;5078887;28;45341;-60
2021/07/28 01:30:25;;;;;;;;;10.25;9.25;;;;;18.96;71.38;100412.00;5079852;27;46366;-61
2021/07/28 01:32:51;;;;;;;;;11.50;10.00;;;;;18.93;71.70;100421.16;5079180;28;57513;-60
2021/07/28 01:35:16;;;;;;;;;11.50;9.00;;;;;18.93;71.74;100409.69;5060921;28;63713;-60
2021/07/28 01:37:44;;;;;;;;;10.25;9.00;;;;;18.92;71.49;100418.69;5078580;27;45368;-61
2021/07/28 01:40:13;;;;;;;;;8.75;7.00;;;;;18.90;71.62;100426.84;5077747;28;63809;-60
2021/07/28 01:42:45;;;;;;;;;5.50;5.00;;;;;18.87;71.50;100423.78;5079737;27;45390;-61
2021/07/28 01:45:11;;;;;;;;;8.75;8.00;;;;;18.83;71.28;100426.81;5080084;27;45355;-60
2021/07/28 01:47:37;;;;;;;;;7.25;5.25;;;;;18.83;70.88;100423.31;5079745;27;45222;-59
2021/07/28 01:50:03;;;;;;;;;8.00;7.50;;;;;18.82;70.93;100425.19;5079459;28;46116;-60
2021/07/28 01:52:28;;;;;;;;;4.75;4.00;;;;;18.82;70.96;100424.34;5079543;27;45235;-60
2021/07/28 01:54:54;;;;;;;;;4.50;4.00;;;;;18.79;70.88;100430.06;5077752;28;58408;-60
2021/07/28 01:57:19;;;;;;;;;7.00;5.00;;;;;18.76;70.51;100422.47;5078749;28;64528;-60
2021/07/28 01:59:44;;;;;;;;;4.00;4.00;;;;;18.76;70.70;100422.47;5078787;28;63004;-60
2021/07/28 02:02:10;;;;;;;;;5.00;5.00;;;;;18.75;70.35;100415.50;5078899;28;45339;-60
2021/07/28 02:04:35;;;;;;;;;4.50;4.00;;;;;18.74;70.49;100427.16;5078544;28;61680;-60
2021/07/28 02:07:01;;;;;;;;;3.00;3.00;;;;;18.73;70.81;100420.19;5078806;28;57490;-61
2021/07/28 02:09:26;;;;;;;;;3.25;3.25;;;;;18.71;70.75;100420.38;5078402;28;64981;-61
2021/07/28 02:11:51;;;;;;;;;3.00;3.00;;;;;18.70;70.75;100421.38;5078643;28;58356;-60
2021/07/28 02:14:17;;;;;;;;;3.00;3.00;;;;;18.65;70.39;100424.63;5079256;28;45388;-60
2021/07/28 02:16:42;;;;;;;;;3.00;3.00;;;;;18.62;70.23;100427.69;5078497;28;61538;-60
2021/07/28 02:19:07;;;;;;;;;3.50;3.00;;;;;18.60;70.23;100428.88;5078349;28;64019;-60
2021/07/28 02:21:33;;;;;;;;;2.75;2.75;;;;;18.53;70.47;100429.66;5078818;28;46873;-60
2021/07/28 02:23:59;;;;;;;;;3.00;3.00;;;;;18.50;70.20;100427.38;5078489;27;45434;-60
2021/07/28 02:26:25;;;;;;;;;5.00;4.75;;;;;18.47;70.20;100418.94;5079154;27;45395;-60
2021/07/28 02:28:52;;;;;;;;;2.75;2.00;;;;;18.44;70.44;100422.00;5078951;27;45350;-60
2021/07/28 02:31:17;;;;;;;;;4.75;3.00;;;;;18.42;70.24;100427.50;5079041;27;45885;-60
2021/07/28 02:33:42;;;;;;;;;5.00;3.25;;;;;18.39;70.52;100431.38;5079041;27;45563;-61
2021/07/28 02:36:08;;;;;;;;;3.25;3.00;;;;;18.37;70.47;100427.25;5078255;28;61530;-60
2021/07/28 02:38:33;;;;;;;;;3.75;3.25;;;;;18.34;70.19;100431.09;5078207;28;59199;-61
2021/07/28 02:40:58;;;;;;;;;5.00;3.00;;;;;18.34;70.16;100430.28;5078722;28;45509;-60
2021/07/28 02:43:24;;;;;;;;;3.00;3.00;;;;;18.34;70.40;100433.75;5078376;28;54005;-60
2021/07/28 02:45:49;;;;;;;;;6.00;4.00;;;;;18.32;70.43;100430.47;5078819;28;45321;-60
2021/07/28 02:48:15;;;;;;;;;4.75;2.00;;;;;18.31;70.05;100426.16;5076939;27;46841;-60
2021/07/28 02:50:40;;;;;;;;;2.75;2.75;;;;;18.32;70.26;100425.16;5077873;28;60656;-59
2021/07/28 02:53:06;;;;;;;;;3.00;3.00;;;;;18.30;70.22;100424.50;5078786;28;45323;-60
2021/07/28 02:55:31;;;;;;;;;4.25;3.00;;;;;18.28;70.52;100429.19;5078187;28;54921;-60
2021/07/28 02:57:56;;;;;;;;;3.00;3.00;;;;;18.28;70.72;100420.41;5077973;28;45960;-60
2021/07/28 03:00:22;;;;;;;;;3.00;3.00;;;;;18.29;70.30;100427.38;5078423;28;45366;-60
2021/07/28 03:02:47;;;;;;;;;5.00;4.00;;;;;18.27;70.33;100422.25;5078151;27;51824;-60
2021/07/28 03:05:14;;;;;;;;;4.25;3.00;;;;;18.27;70.33;100432.91;5078405;28;45232;-60
2021/07/28 03:07:39;;;;;;;;;2.00;2.00;;;;;18.27;70.59;100426.75;5078397;27;46172;-60
2021/07/28 03:10:05;;;;;;;;;4.00;3.00;;;;;18.27;70.17;100438.22;5078221;27;45182;-60
2021/07/28 03:12:31;;;;;;;;;3.00;2.00;;;;;18.27;70.22;100435.56;5078361;27;45146;-61
2021/07/28 03:14:56;;;;;;;;;3.00;2.75;;;;;18.27;70.33;100426.75;5078419;27;45172;-59
2021/07/28 03:17:21;;;;;;;;;4.00;2.00;;;;;18.26;70.31;100427.75;5077527;28;56955;-60
2021/07/28 03:19:47;;;;;;;;;2.25;2.25;;;;;18.26;70.06;100438.41;5077159;27;64500;-60
2021/07/28 03:22:12;;;;;;;;;5.00;3.00;;;;;18.26;70.34;100438.41;5077736;28;58999;-60
2021/07/28 03:24:38;;;;;;;;;2.25;2.25;;;;;18.22;70.34;100430.78;5077582;28;56761;-60
2021/07/28 03:27:03;;;;;;;;;6.00;2.25;;;;;18.22;70.13;100438.78;5076915;27;61984;-60
2021/07/28 03:29:28;;;;;;;;;4.75;2.25;;;;;18.21;70.44;100444.28;5076385;27;45312;-61
2021/07/28 03:31:54;;;;;;;;;4.00;3.00;;;;;18.18;70.13;100437.50;5078290;27;45307;-60
2021/07/28 03:34:19;;;;;;;;;4.00;2.50;;;;;18.18;69.99;100444.66;5077910;28;45290;-59
2021/07/28 03:36:45;;;;;;;;;3.00;3.00;;;;;18.16;69.96;100444.84;5077227;28;64285;-60
2021/07/28 03:39:10;;;;;;;;;2.50;2.50;;;;;18.14;69.73;100449.53;5077771;28;45387;-60
2021/07/28 03:41:35;;;;;;;;;3.25;3.25;;;;;18.13;69.96;100450.53;5076980;27;56294;-59
2021/07/28 03:44:01;;;;;;;;;4.50;2.75;;;;;18.13;69.84;100449.72;5078002;28;45457;-60
2021/07/28 03:46:26;;;;;;;;;2.25;2.00;;;;;18.10;69.69;100453.56;5076985;28;60915;-60
2021/07/28 03:48:52;;;;;;;;;2.25;2.00;;;;;18.09;69.88;100455.41;5077223;28;55797;-60
2021/07/28 03:51:17;;;;;;;;;4.50;2.50;;;;;18.07;69.85;100449.47;5077806;27;45323;-60
2021/07/28 03:53:43;;;;;;;;;3.25;3.00;;;;;18.05;69.65;100456.81;5077276;28;50178;-59
2021/07/28 03:56:08;;;;;;;;;3.00;3.00;;;;;18.05;69.64;100450.66;5077516;28;45389;-59
2021/07/28 03:58:33;;;;;;;;;4.00;2.25;;;;;18.04;69.79;100457.81;5076996;28;59095;-60
2021/07/28 04:00:59;;;;;;;;;2.25;2.00;;;;;18.01;69.49;100454.72;5077101;28;56574;-60
2021/07/28 04:03:24;;;;;;;;;4.75;2.00;;;;;18.02;69.18;100466.97;5076733;27;63776;-60
2021/07/28 04:05:56;;;;;;;;;6.00;2.00;;;;;18.00;69.33;100459.19;5077052;28;52880;-60
2021/07/28 04:08:21;;;;;;;;;4.00;2.00;;;;;18.00;69.44;100469.03;5077319;27;45412;-60
2021/07/28 04:10:48;;;;;;;;;2.00;2.00;;;;;17.98;69.51;100471.00;5077405;27;45448;-60
2021/07/28 04:13:14;;;;;;;;;3.00;3.00;;;;;17.97;69.23;100469.34;5075309;28;45509;-60
2021/07/28 04:15:39;;;;;;;;;3.25;1.00;;;;;17.95;69.22;100467.72;5076500;27;45361;-61
2021/07/28 04:18:05;;;;;;;;;2.00;2.00;;;;;17.94;69.39;100473.19;5077089;27;45523;-61
2021/07/28 04:20:30;;;;;;;;;2.25;2.25;;;;;17.93;69.13;100472.38;5076674;28;54249;-60
2021/07/28 04:22:55;;;;;;;;;2.75;2.75;;;;;17.93;69.54;100472.38;5077063;27;48342;-60
2021/07/28 04:25:21;;;;;;;;;3.75;3.25;;;;;17.92;69.52;100478.72;5076489;28;64774;-60
2021/07/28 04:27:46;;;;;;;;;3.00;2.00;;;;;17.91;69.44;100477.06;5077120;28;45308;-60
2021/07/28 04:30:12;;;;;;;;;3.25;2.75;;;;;17.89;69.61;100479.09;5077203;28;45355;-60
2021/07/28 04:32:37;;;;;;;;;4.00;2.00;;;;;17.90;69.46;100474.56;5077074;27;45292;-60
2021/07/28 04:35:03;;;;;;;;;2.50;2.50;;;;;17.89;69.23;100470.28;5076896;28;45327;-60
2021/07/28 04:37:29;;;;;;;;;2.25;1.50;;;;;17.89;69.31;100467.63;5075835;27;45239;-60
2021/07/28 04:39:55;;;;;;;;;3.00;2.75;;;;;17.85;69.37;100471.66;5076530;28;53011;-61
2021/07/28 04:42:20;;;;;;;;;5.75;4.00;;;;;17.83;69.40;100474.50;5076851;27;45310;-61
2021/07/28 04:44:46;;;;;;;;;4.50;3.75;;;;;17.80;69.70;100480.19;5076350;27;58264;-61
2021/07/28 04:47:11;;;;;;;;;3.50;2.50;;;;;17.79;69.70;100478.53;5076794;28;45330;-61
2021/07/28 04:49:36;;;;;;;;;4.00;2.75;;;;;17.77;69.41;100477.91;5076419;28;51209;-61
2021/07/28 04:52:02;;;;;;;;;2.50;2.00;;;;;17.76;68.94;100481.56;5076292;28;55897;-61
2021/07/28 04:54:27;;;;;;;;;3.00;3.00;;;;;17.74;68.68;100473.78;5076542;28;46006;-61
2021/07/28 04:56:53;;;;;;;;;4.50;3.00;;;;;17.73;68.70;100481.94;5075923;28;59452;-61
2021/07/28 04:59:18;;;;;;;;;2.00;2.00;;;;;17.72;68.15;100482.94;5076359;28;55801;-61
2021/07/28 05:01:44;;;;;;;;;2.75;2.25;;;;;17.72;68.25;100488.25;5076750;27;45556;-58
2021/07/28 05:04:09;;;;;;;;;4.25;2.00;;;;;17.73;68.17;100485.44;5075941;28;59679;-61
2021/07/28 05:06:35;;;;;;;;;1.50;1.50;;;;;17.75;68.35;100485.22;5076524;28;45486;-60
2021/07/28 05:09:01;;;;;;;;;3.75;2.50;;;;;17.76;68.25;100487.69;5076531;28;45358;-62
2021/07/28 05:11:26;;;;;;;;;3.25;2.00;;;;;17.77;68.07;100488.53;5075277;28;45467;-61
2021/07/28 05:13:51;;;;;;;;;3.00;2.75;;;;;17.79;68.22;100482.00;5076069;28;54457;-62
2021/07/28 05:16:17;;;;;;;;;2.00;2.00;;;;;17.82;67.85;100483.50;5075759;28;60129;-61
2021/07/28 05:18:42;;;;;;;;;4.00;3.00;;;;;17.84;67.89;100477.97;5075663;28;62767;-61
2021/07/28 05:21:07;;;;;;;;;3.25;3.25;;;;;17.86;68.23;100489.25;5075667;27;55884;-61
2021/07/28 05:23:33;;;;;;;;;4.25;3.00;;;;;17.87;67.97;100489.06;5076223;27;45482;-62
2021/07/28 05:25:59;;;;;;;;;2.50;2.00;;;;;17.89;67.99;100496.84;5075730;28;58742;-61
2021/07/28 05:28:25;;;;;;;;;2.00;2.00;;;;;17.90;67.78;100493.19;5075612;27;45369;-61
2021/07/28 05:30:50;;;;;;;;;2.00;1.75;;;;;17.90;67.77;100502.00;5076421;27;45350;-60
2021/07/28 05:33:15;;;;;;;;;5.00;3.00;;;;;17.91;67.66;100500.16;5075406;28;66797;-60
2021/07/28 05:35:47;;;;;;;;;2.25;2.00;;;;;17.92;67.65;100494.66;5075008;27;57974;-61
2021/07/28 05:38:13;;;;;;;;;3.00;1.75;;;;;17.93;67.32;100495.47;5076240;27;45217;-62
2021/07/28 05:40:38;;;;;;;;;2.00;2.00;;;;;17.94;67.35;100497.13;5075570;28;56671;-61
2021/07/28 05:43:03;;;;;;;;;2.00;2.00;;;;;17.91;67.31;100495.69;5075335;28;66765;-61
2021/07/28 05:45:29;;;;;;;;;3.00;3.00;;;;;17.94;67.40;100492.66;5075653;28;56734;-61
2021/07/28 05:47:54;;;;;;;;;2.00;2.00;;;;;17.93;67.38;100504.28;5075630;28;58812;-61
2021/07/28 05:50:20;;;;;;;;;3.75;2.00;;;;;17.93;66.99;100498.97;5079013;28;45398;-61
2021/07/28 05:52:45;;;;;;;;;5.00;2.25;;;;;17.93;66.85;100500.78;5078583;27;66728;-61
2021/07/28 05:55:11;;;;;;;;;3.25;2.00;;;;;17.94;67.32;100500.63;5079443;28;45370;-61
2021/07/28 05:57:36;;;;;;;;;2.00;2.00;;;;;17.94;67.16;100505.94;5079394;27;45503;-61
2021/07/28 06:00:05;;;;;;;;;2.75;2.75;;;;;17.96;67.40;100511.06;5079613;27;45356;-61
2021/07/28 06:02:30;;;;;;;;;3.75;2.00;;;;;17.97;67.22;100512.69;5079416;27;45357;-61
2021/07/28 06:04:56;;;;;;;;;3.50;2.00;;;;;17.98;67.81;100511.69;5079227;28;45216;-61
2021/07/28 06:07:21;;;;;;;;;4.50;2.00;;;;;18.00;67.26;100503.56;5078778;28;56264;-61
2021/07/28 06:09:47;;;;;;;;;4.00;2.25;;;;;18.01;67.33;100511.34;5079446;27;45520;-61
2021/07/28 06:12:16;;;;;;;;;3.50;2.75;;;;;18.03;66.90;100514.66;5078413;28;66255;-60
2021/07/28 06:14:42;;;;;;;;;2.00;2.00;;;;;18.07;67.17;100520.41;5079256;27;45347;-61
2021/07/28 06:17:07;;;;;;;;;1.50;1.00;;;;;18.09;66.61;100523.72;5079394;27;45302;-61
2021/07/28 06:19:32;;;;;;;;;7.00;4.00;;;;;18.13;66.20;100526.84;5078246;28;57368;-61
2021/07/28 06:21:58;;;;;;;;;2.25;2.25;;;;;18.15;65.92;100533.59;5078892;28;46258;-61
2021/07/28 06:24:23;;;;;;;;;2.00;2.00;;;;;18.19;65.81;100534.06;5079038;28;45348;-61
2021/07/28 06:26:49;;;;;;;;;2.00;2.00;;;;;18.23;65.64;100530.84;5078483;27;56066;-61
2021/07/28 06:29:14;;;;;;;;;3.50;3.00;;;;;18.28;65.56;100534.78;5078857;27;45346;-61
2021/07/28 06:31:39;;;;;;;;;4.50;4.00;;;;;18.33;65.45;100541.16;5078546;28;55951;-63
2021/07/28 06:34:05;;;;;;;;;2.00;2.00;;;;;18.37;64.82;100533.66;5078562;27;54168;-61
2021/07/28 06:36:30;;;;;;;;;3.00;2.00;;;;;18.40;64.54;100527.97;5079026;28;45356;-61
2021/07/28 06:38:56;;;;;;;;;4.00;2.00;;;;;18.43;64.99;100530.25;5078815;28;45609;-59
2021/07/28 06:41:21;;;;;;;;;4.00;1.25;;;;;18.47;64.76;100539.50;5078653;28;45888;-61
2021/07/28 06:43:46;;;;;;;;;3.00;3.00;;;;;18.51;64.71;100537.28;5078667;28;45299;-61
2021/07/28 06:46:12;;;;;;;;;2.50;2.50;;;;;18.56;64.71;100534.88;5078148;28;57985;-61
2021/07/28 06:48:37;;;;;;;;;3.00;2.00;;;;;18.58;64.38;100545.31;5077238;28;47960;-61
2021/07/28 06:51:03;;;;;;;;;2.00;2.00;;;;;18.61;64.63;100548.44;5078487;28;46623;-61
2021/07/28 06:53:28;;;;;;;;;3.25;3.25;;;;;18.62;64.44;100546.59;5078504;27;45299;-61
2021/07/28 06:55:53;;;;;;;;;5.25;4.00;;;;;18.65;64.24;100544.41;5078682;28;45265;-60
2021/07/28 06:58:19;;;;;;;;;2.50;2.00;;;;;18.66;64.51;100547.88;5077836;27;62064;-61
2021/07/28 07:00:45;;;;;;;;;3.50;3.50;;;;;18.69;64.25;100553.66;5077375;28;45260;-60
2021/07/28 07:03:10;;;;;;;;;3.50;2.25;;;;;18.72;63.93;100543.63;5077880;27;45372;-60
2021/07/28 07:05:36;;;;;;;;;2.25;2.25;;;;;18.74;63.99;100552.25;5077127;28;45716;-60
2021/07/28 07:08:01;;;;;;;;;3.25;2.25;;;;;18.79;63.86;100558.66;5078428;28;45478;-60
2021/07/28 07:10:26;;;;;;;;;2.50;2.50;;;;;18.82;63.33;100546.78;5078218;27;45310;-61
2021/07/28 07:12:52;;;;;;;;;7.00;5.00;;;;;18.88;63.59;100547.88;5077442;27;45347;-61
2021/07/28 07:15:17;;;;;;;;;5.75;3.00;;;;;18.95;63.10;100548.75;5077821;27;55000;-61
2021/07/28 07:17:43;;;;;;;;;3.50;1.50;;;;;19.02;63.25;100557.66;5078276;28;45239;-62
2021/07/28 07:20:09;;;;;;;;;2.75;2.75;;;;;19.09;63.24;100555.06;5077831;28;45893;-60
2021/07/28 07:22:34;;;;;;;;;3.25;1.25;;;;;19.16;62.56;100553.28;5076880;27;45757;-61
2021/07/28 07:25:00;;;;;;;;;2.00;2.00;;;;;19.23;62.63;100558.63;5078208;27;45219;-61
2021/07/28 07:27:25;;;;;;;;;5.25;2.50;;;;;19.29;62.12;100565.88;5077992;28;45421;-61
2021/07/28 07:29:50;;;;;;;;;2.25;2.25;;;;;19.35;61.26;100565.09;5077007;28;69598;-61
2021/07/28 07:32:23;;;;;;;;;4.00;4.00;;;;;19.40;61.46;100568.00;5077868;28;45386;-61
2021/07/28 07:34:51;;;;;;;;;3.25;2.00;;;;;19.42;61.50;100563.31;5078093;27;45389;-61
2021/07/28 07:37:17;;;;;;;;;4.25;3.50;;;;;19.48;60.80;100567.03;5076498;28;50891;-61
2021/07/28 07:39:42;;;;;;;;;4.00;3.00;;;;;19.50;61.10;100562.31;5074593;27;65807;-61
2021/07/28 07:42:07;;;;;;;;;4.00;3.00;;;;;19.52;60.90;100562.16;5072570;27;45367;-61
2021/07/28 07:44:33;;;;;;;;;3.75;2.00;;;;;19.56;61.51;100569.53;5067587;27;45927;-60
2021/07/28 07:46:58;;;;;;;;;3.50;2.50;;;;;19.59;61.95;100565.69;5074361;28;46247;-61
2021/07/28 07:49:23;;;;;;;;;2.25;2.00;;;;;19.64;61.95;100563.22;5068937;27;57240;-60
2021/07/28 07:51:49;;;;;;;;;6.25;3.50;;;;;19.69;61.73;100568.00;5065355;27;53763;-61
2021/07/28 07:54:14;;;;;;;;;2.00;2.00;;;;;19.79;61.71;100564.97;5071078;27;56252;-61
2021/07/28 07:56:40;;;;;;;;;2.75;2.75;;;;;19.90;61.12;100567.13;5072308;27;61493;-60
2021/07/28 07:59:05;;;;;;;;;6.25;3.25;;;;;20.02;61.45;100568.22;5071066;28;46143;-61
2021/07/28 08:01:31;;;;;;;;;4.00;2.75;;;;;20.15;61.03;100563.94;5070582;27;54756;-62
2021/07/28 08:03:56;;;;;;;;;4.00;4.00;;;;;20.23;60.55;100571.75;5076154;27;45688;-61
2021/07/28 08:06:21;;;;;;;;;4.00;3.75;;;;;20.29;60.20;100573.63;5075502;27;61397;-60
2021/07/28 08:08:47;;;;;;;;;4.00;2.00;;;;;20.34;59.87;100569.56;5075127;27;59577;-61
2021/07/28 08:11:13;;;;;;;;;7.00;3.00;;;;;20.38;59.04;100565.47;5068965;27;47335;-60
2021/07/28 08:13:38;;;;;;;;;3.00;2.00;;;;;20.41;59.55;100565.06;5066318;28;45450;-61
2021/07/28 08:16:18;;;;;;;;;5.75;3.75;;;;;20.49;59.14;100566.72;5070220;28;45610;-61
2021/07/28 08:18:43;;;;;;;;;3.00;2.00;;;;;20.55;59.11;100564.09;5066747;28;46088;-61
2021/07/28 08:21:09;;;;;;;;;3.75;3.00;;;;;20.64;59.29;100561.22;5071994;28;45473;-61
2021/07/28 08:23:39;;;;;;;;;5.25;3.00;;;;;20.73;59.64;100558.16;5072597;28;45573;-60
2021/07/28 08:26:04;;;;;;;;;5.00;4.00;;;;;20.83;58.83;100557.78;5072611;27;45441;-60
2021/07/28 08:28:29;;;;;;;;;2.25;2.25;;;;;20.90;58.39;100555.94;5072656;27;46093;-60
2021/07/28 08:30:55;;;;;;;;;4.25;4.25;;;;;20.97;58.41;100560.47;5074525;27;45473;-62
2021/07/28 08:33:27;;;;;;;;;4.75;3.25;;;;;21.05;58.07;100554.94;5074864;27;45365;-61
2021/07/28 08:35:56;;;;;;;;;3.00;3.00;;;;;21.16;58.35;100545.47;5075109;27;45637;-61
2021/07/28 08:38:22;;;;;;;;;4.00;4.00;;;;;21.29;57.19;100555.31;5074394;27;45475;-61
2021/07/28 08:41:01;;;;;;;;;3.50;3.00;;;;;21.40;56.42;100554.69;5074402;27;45855;-60
2021/07/28 08:43:30;;;;;;;;;2.25;2.25;;;;;21.52;56.45;100559.44;5074259;28;45464;-61
2021/07/28 08:45:57;;;;;;;;;4.00;3.25;;;;;21.58;55.84;100554.06;5074334;28;45624;-61
2021/07/28 08:48:23;;;;;;;;;2.50;2.00;;;;;21.62;56.06;100549.97;5074146;27;45280;-61
2021/07/28 08:50:48;;;;;;;;;4.00;3.00;;;;;21.66;55.93;100547.72;5074502;27;45259;-61
2021/07/28 08:53:13;;;;;;;;;3.00;3.00;;;;;21.72;55.61;100551.38;5055558;28;56289;-61
2021/07/28 08:55:39;;;;;;;;;5.25;4.00;;;;;21.81;55.45;100554.66;5074061;27;56455;-61
2021/07/28 08:58:08;;;;;;;;;7.25;5.00;;;;;21.90;54.92;100553.38;5074033;27;46325;-61
2021/07/28 09:00:41;;;;;;;;;4.25;3.00;;;;;21.97;53.37;100551.50;5073293;28;45586;-61
2021/07/28 09:03:06;;;;;;;;;3.50;3.50;;;;;22.07;52.87;100549.22;5074465;27;45272;-61
2021/07/28 09:05:43;;;;;;;;;5.00;3.00;;;;;22.23;52.70;100549.78;5074147;28;57300;-61
2021/07/28 09:08:31;;;;;;;;;5.50;3.00;;;;;22.41;52.33;100551.72;5072909;28;46211;-61
2021/07/28 09:11:03;;;;;;;;;4.00;2.00;;;;;22.57;51.41;100555.78;5072066;28;45781;-61
2021/07/28 09:13:48;;;;;;;;;4.00;1.50;;;;;22.72;51.17;100562.72;5073195;28;45464;-61
2021/07/28 09:16:17;;;;;;;;;3.25;2.00;;;;;22.84;50.44;100555.59;5070828;28;57553;-59
2021/07/28 09:18:50;;;;;;;;;1.50;1.00;;;;;22.89;49.98;100558.44;5074460;28;46099;-61
2021/07/28 09:21:21;;;;;;;;;5.00;2.00;;;;;22.96;49.86;100555.72;5074229;28;45428;-61
2021/07/28 09:23:51;;;;;;;;;3.00;3.00;;;;;23.05;49.97;100553.59;5075005;27;45490;-62
2021/07/28 09:26:30;;;;;;;;;1.00;1.00;;;;;23.16;49.28;100555.56;5075075;27;45216;-61
2021/07/28 09:29:06;;;;;;;;;4.50;2.00;;;;;23.23;48.88;100548.31;5069598;28;45517;-61
2021/07/28 09:31:43;;;;;;;;;3.50;2.00;;;;;23.28;48.05;100561.06;5076041;27;45512;-61
2021/07/28 09:34:26;;;;;;;;;3.25;2.00;;;;;23.27;47.99;100560.25;5075518;28;45618;-60
2021/07/28 09:36:55;;;;;;;;;3.00;3.00;;;;;23.26;48.50;100560.44;5076689;28;45469;-60
2021/07/28 09:39:25;;;;;;;;;10.50;9.50;;;;;23.22;49.15;100560.09;5075253;28;45568;-61
2021/07/28 09:41:51;;;;;;;;;4.00;2.00;;;;;23.18;49.47;100564.22;5074904;27;45536;-61
2021/07/28 09:44:27;;;;;;;;;3.00;3.00;;;;;23.12;48.72;100559.72;5075874;28;45887;-61
2021/07/28 09:47:05;;;;;;;;;3.25;3.25;;;;;23.05;48.53;100564.31;5075179;28;45462;-62
2021/07/28 09:49:30;;;;;;;;;3.00;2.00;;;;;23.00;49.25;100558.78;5077036;28;46262;-60
2021/07/28 09:51:56;;;;;;;;;2.00;2.00;;;;;22.92;49.12;100558.00;5077425;27;45496;-60
2021/07/28 09:54:25;;;;;;;;;3.25;2.00;;;;;22.88;48.75;100562.16;5077635;27;45479;-61
2021/07/28 09:56:53;;;;;;;;;1.25;1.25;;;;;22.86;50.08;100563.44;5076629;28;45551;-61
2021/07/28 09:59:18;;;;;;;;;2.50;2.25;;;;;22.86;49.68;100553.53;5077026;27;46153;-60
2021/07/28 10:01:45;;;;;;;;;3.75;2.00;;;;;22.87;50.35;100562.38;5077326;27;45424;-61
2021/07/28 10:04:12;;;;;;;;;2.25;2.25;;;;;22.89;49.37;100558.44;5078296;27;45541;-61
2021/07/28 10:06:39;;;;;;;;;1.75;1.75;;;;;22.90;49.56;100565.44;5078300;27;45542;-61
2021/07/28 10:09:09;;;;;;;;;4.50;4.50;;;;;22.91;49.58;100563.59;5077574;27;45596;-61
2021/07/28 10:11:42;;;;;;;;;2.00;2.00;;;;;22.94;50.36;100568.53;5077963;27;45458;-61
2021/07/28 10:14:08;;;;;;;;;4.00;3.00;;;;;22.93;49.73;100567.69;5078327;28;45326;-61
2021/07/28 10:16:34;;;;;;;;;2.00;2.00;;;;;22.94;49.78;100563.16;5078220;27;45667;-61
2021/07/28 10:19:00;;;;;;;;;2.75;2.25;;;;;22.96;49.79;100563.78;5077417;28;45312;-61
2021/07/28 10:21:26;;;;;;;;;6.00;2.00;;;;;23.00;49.89;100564.97;5077508;27;45745;-60
2021/07/28 10:23:51;;;;;;;;;5.75;3.00;;;;;23.03;49.98;100559.19;5077771;28;45228;-62
2021/07/28 10:26:17;;;;;;;;;4.25;3.00;;;;;23.10;50.00;100564.47;5076543;28;45614;-61
2021/07/28 10:28:46;;;;;;;;;3.75;2.25;;;;;23.18;49.95;100560.69;5075721;28;45807;-61
2021/07/28 10:31:16;;;;;;;;;5.00;3.50;;;;;23.23;50.51;100556.34;5076077;28;45941;-62
2021/07/28 10:33:46;;;;;;;;;5.00;4.50;;;;;23.30;50.72;100566.22;5077474;27;45488;-61
2021/07/28 10:36:12;;;;;;;;;4.75;4.00;;;;;23.34;50.19;100570.06;5076314;27;45477;-61
2021/07/28 10:39:07;;;;;;;;;6.00;3.00;;;;;23.38;50.31;100560.53;5076966;27;45357;-61
2021/07/28 10:41:39;;;;;;;;;5.00;3.00;;;;;23.40;49.79;100567.34;5068803;28;59701;-62
2021/07/28 10:44:20;;;;;;;;;5.25;5.25;;;;;23.40;49.33;100559.28;5076069;28;45526;-61
2021/07/28 10:47:05;;;;;;;;;5.00;3.25;;;;;23.38;49.69;100558.69;5075045;28;45418;-61
2021/07/28 10:49:36;;;;;;;;;3.50;3.50;;;;;23.36;49.10;100567.97;5071368;28;46197;-61
2021/07/28 10:52:05;;;;;;;;;3.00;3.00;;;;;23.34;49.20;100562.84;5068178;28;45532;-61
2021/07/28 10:54:50;;;;;;;;;2.00;2.00;;;;;23.36;49.97;100565.28;5066398;28;45464;-60
2021/07/28 10:57:44;;;;;;;;;4.25;3.50;;;;;23.42;48.38;100567.94;5067252;28;45244;-60
2021/07/28 11:00:10;;;;;;;;;1.25;1.25;;;;;23.48;48.28;100562.72;5068767;28;46336;-61
2021/07/28 11:02:51;;;;;;;;;3.00;3.00;;;;;23.49;46.75;100559.00;5071512;28;46107;-61
2021/07/28 11:05:21;;;;;;;;;2.75;2.75;;;;;23.52;46.68;100570.09;5069011;27;45465;-61
2021/07/28 11:08:07;;;;;;;;;3.00;3.00;;;;;23.61;45.79;100572.50;5068689;28;45623;-61
2021/07/28 11:11:01;;;;;;;;;2.00;2.00;;;;;23.73;45.86;100562.69;5066275;28;45381;-61
2021/07/28 11:13:30;;;;;;;;;3.50;2.25;;;;;23.87;45.49;100563.34;5064177;28;45750;-62
2021/07/28 11:16:06;;;;;;;;;1.00;1.00;;;;;24.00;45.17;100563.22;5072606;27;45481;-62
2021/07/28 11:18:45;;;;;;;;;3.00;3.00;;;;;24.19;45.57;100563.19;5074130;28;46366;-61
2021/07/28 11:21:23;;;;;;;;;4.00;2.75;;;;;24.38;44.47;100563.97;5076455;28;46044;-61
2021/07/28 11:24:01;;;;;;;;;3.50;3.00;;;;;24.57;44.38;100569.28;5073296;28;45615;-61
2021/07/28 11:26:31;;;;;;;;;3.50;3.00;;;;;24.74;43.66;100564.94;5076814;28;45471;-61
2021/07/28 11:28:59;;;;;;;;;4.50;1.50;;;;;24.93;42.89;100570.22;5076364;27;45506;-61